»·PEaware :: N7274H KBFL-KMHV

N7274H :: KBFL-KMHV

FLIGHT INFORMATION

Flight Status: Arrived
Operator: Privately registered:
United States
More flights under this callsign
Pilot: Anonymous 16342 (16342)
Aircraft: CESSNA 172 SKYHAWK
(C172)
More flights by this aircraft type
Origin: KBFL Meadows
United States
Destination: KMHV Mojave
United States
More flights between these airports :: More routes between these airports
Route: +
File this flight plan on PilotEdge
Remarks: CAT-06 Flight
Altitude:
(Current/Filed)
5,500ft
Speed:
(Current/Filed)
130kts
Departed: 25-Nov-17 02:30 PM
Arrived: 25-Nov-17 03:00 PM
Distance/Time
Traveled:
50nm/0:29
Distance/Time
To Go:
Arrived

Flight Plot

Page will automatically refresh every two minutes.


Map Options




Map Legend


Flown Route
Filed Route
Departure Airport
Arrival Airport
Navaid (VOR, NDB)
Fix

Horizontal Profiles

Position Reports

Time Latitude Longitude Heading Altitude Ground
Speed
25-Nov-17 14:12 35.435608 -119.053559 311 510ft 0kts
25-Nov-17 14:13 35.435608 -119.053559 311 510ft 0kts
25-Nov-17 14:14 35.435609 -119.053562 311 510ft 0kts
25-Nov-17 14:15 35.435611 -119.053564 311 510ft 0kts
25-Nov-17 14:16 35.435614 -119.053568 311 510ft 0kts
25-Nov-17 14:17 35.435616 -119.053571 311 510ft 0kts
25-Nov-17 14:18 35.435618 -119.053574 311 510ft 0kts
25-Nov-17 14:19 35.435621 -119.053578 311 510ft 0kts
25-Nov-17 14:20 35.435623 -119.053581 311 510ft 0kts
25-Nov-17 14:21 35.435625 -119.053584 311 510ft 0kts
25-Nov-17 14:22 35.435628 -119.053587 311 510ft 0kts
25-Nov-17 14:23 35.434573 -119.054555 226 510ft 7kts
25-Nov-17 14:24 35.432894 -119.052786 136 510ft 17kts
25-Nov-17 14:25 35.429722 -119.048997 136 510ft 27kts
25-Nov-17 14:26 35.425762 -119.044737 227 510ft 0kts
25-Nov-17 14:27 35.425761 -119.044738 227 510ft 0kts
25-Nov-17 14:28 35.425761 -119.044739 227 510ft 0kts
25-Nov-17 14:29 35.425760 -119.044740 227 510ft 0kts
25-Nov-17 14:30 35.425760 -119.044741 227 510ft 0kts
25-Nov-17 14:31 35.425759 -119.044742 227 510ft 0kts
25-Nov-17 14:32 35.425758 -119.044742 227 510ft 0kts
25-Nov-17 14:33 35.425758 -119.044743 227 510ft 0kts
25-Nov-17 14:34 35.425490 -119.045614 272 510ft 19kts
25-Nov-17 14:35 35.436584 -119.059839 313 864ft 89kts
25-Nov-17 14:36 35.458455 -119.065167 16 1768ft 96kts
25-Nov-17 14:37 35.472579 -119.032338 80 2445ft 125kts
25-Nov-17 14:38 35.472076 -118.994423 97 3155ft 104kts
25-Nov-17 14:39 35.457679 -118.964561 143 3843ft 114kts
25-Nov-17 14:40 35.435241 -118.942945 144 4580ft 103kts
25-Nov-17 14:41 35.409534 -118.918320 144 5289ft 122kts
25-Nov-17 14:42 35.380545 -118.890551 144 5378ft 131kts
25-Nov-17 14:43 35.352502 -118.863679 143 5467ft 118kts
25-Nov-17 14:44 35.329975 -118.836062 137 5513ft 120kts
25-Nov-17 14:45 35.306301 -118.803101 120 5524ft 124kts
25-Nov-17 14:46 35.291639 -118.767715 120 5556ft 117kts
25-Nov-17 14:47 35.279329 -118.727938 112 5591ft 125kts
25-Nov-17 14:48 35.270316 -118.685606 104 5595ft 123kts
25-Nov-17 14:49 35.264247 -118.645828 104 5614ft 117kts
25-Nov-17 14:50 35.255457 -118.606142 113 5625ft 124kts
25-Nov-17 14:51 35.237790 -118.569732 134 5635ft 125kts
25-Nov-17 14:52 35.213949 -118.538494 135 5643ft 124kts
25-Nov-17 14:53 35.190282 -118.507268 135 5652ft 124kts
25-Nov-17 14:54 35.166530 -118.475900 134 5651ft 125kts
25-Nov-17 14:55 35.148911 -118.438765 121 5652ft 124kts
25-Nov-17 14:56 35.132124 -118.401150 111 5561ft 128kts
25-Nov-17 14:57 35.119137 -118.362935 112 5558ft 118kts
25-Nov-17 14:58 35.107495 -118.325940 108 5543ft 119kts
25-Nov-17 14:59 35.093645 -118.288806 111 5521ft 122kts
25-Nov-17 15:00 35.081310 -118.251422 112 4984ft 105kts
25-Nov-17 15:01 35.070657 -118.219485 108 4484ft 101kts
25-Nov-17 15:02 35.067422 -118.185182 95 4020ft 102kts
25-Nov-17 15:03 35.065536 -118.151572 92 3689ft 88kts
25-Nov-17 15:04 35.059969 -118.131022 251 3279ft 92kts
25-Nov-17 15:05 35.059206 -118.153780 270 2794ft 25kts
25-Nov-17 15:06 35.058423 -118.157758 180 2794ft 0kts
25-Nov-17 15:07 35.058383 -118.157758 182 2794ft 0kts
25-Nov-17 15:08 35.057120 -118.156041 75 2794ft 0kts

Navigation Log

Ident Type
Flight plan parsing failed, navigation log unavailable